Clovis, California
Current Conditions -  °F | °C
As of 8:53 PM on Sunday 21 Dec 2014 (Local Time) from KFAT Reporting Station
Haze Haze  
Wind Chill: 56°   Ceiling: 1700
Heat Index: 56°   Visibility: 4mi
Dew Point: 54°   Wind: 6mph
Humidity: 93%   Direction: 120°ESE
Pressure: 30.26"   Gusts: NA
Location:  36.82°N, 119.69°W
Report Text: KFAT 220453Z 12005KT 4SM BR FEW006 BKN017 OVC020 13/12 A3026 RMK AO2 SLP248 T01330122
Loading
Personal Weather Stations






























Interactive Weather Map New forecast layout! Learn more

10-Day Weather Forecast

Advertisements
Track Severe Weather on mobile